Time,TemperatureF,DewpointF,PressureIn,WindDirection,WindDirectionDegrees,WindSpeedMPH,WindSpeedGustMPH,Humidity,HourlyPrecipIn,Conditions,Clouds,dailyrainin,SoftwareType,DateUTC
2013-02-14 00:00:00,38.5,32.2,29.76,South,178,6.0,9.0,78,0.00,,---,0.00,VWS V14.01,2013-02-14 06:00:00,
2013-02-14 00:01:00,37.7,32.1,29.78,South,181,3.0,6.0,80,0.00,,---,0.00,VWS V14.01,2013-02-14 06:01:00,
2013-02-14 00:06:00,37.8,32.2,29.78,South,180,3.0,6.0,80,0.00,,---,0.00,VWS V14.01,2013-02-14 06:06:00,
2013-02-14 00:12:00,37.8,32.2,29.77,South,182,3.0,6.0,80,0.00,,---,0.00,VWS V14.01,2013-02-14 06:12:00,
2013-02-14 00:17:00,37.9,32.3,29.77,South,183,4.0,7.0,80,0.00,,---,0.00,VWS V14.01,2013-02-14 06:17:00,
2013-02-14 00:22:00,37.9,32.3,29.77,South,185,4.0,7.0,80,0.00,,---,0.00,VWS V14.01,2013-02-14 06:22:00,
2013-02-14 00:27:00,38.0,32.1,29.77,South,177,4.0,8.0,79,0.00,,---,0.00,VWS V14.01,2013-02-14 06:27:00,
2013-02-14 00:30:00,38.6,32.3,29.75,SW,215,7.0,11.0,78,0.00,,---,0.00,VWS V14.01,2013-02-14 06:30:00,
2013-02-14 00:32:00,38.2,32.3,29.77,South,186,5.0,7.0,79,0.00,,---,0.00,VWS V14.01,2013-02-14 06:32:00,
2013-02-14 00:37:00,38.3,32.4,29.77,South,188,3.0,8.0,79,0.00,,---,0.00,VWS V14.01,2013-02-14 06:37:00,
2013-02-14 00:42:00,38.4,32.2,29.77,South,190,6.0,8.0,78,0.00,,---,0.00,VWS V14.01,2013-02-14 06:42:00,
2013-02-14 00:47:00,38.5,32.2,29.77,South,183,6.0,8.0,78,0.00,,---,0.00,VWS V14.01,2013-02-14 06:47:00,
2013-02-14 00:52:00,38.5,32.2,29.76,South,188,5.0,9.0,78,0.00,,---,0.00,VWS V14.01,2013-02-14 06:52:00,
2013-02-14 00:58:00,38.5,32.2,29.76,SSW,194,3.0,9.0,78,0.00,,---,0.00,VWS V14.01,2013-02-14 06:58:00,
2013-02-14 01:00:00,38.5,32.6,29.75,SW,230,1.0,9.0,79,0.00,,---,0.00,VWS V14.01,2013-02-14 07:00:00,
2013-02-14 01:03:00,38.5,32.2,29.76,South,188,5.0,8.0,78,0.00,,---,0.00,VWS V14.01,2013-02-14 07:03:00,
2013-02-14 01:08:00,38.5,32.2,29.76,SSW,192,6.0,8.0,78,0.00,,---,0.00,VWS V14.01,2013-02-14 07:08:00,
2013-02-14 01:13:00,38.6,32.3,29.76,SSW,206,3.0,9.0,78,0.00,,---,0.00,VWS V14.01,2013-02-14 07:13:00,
2013-02-14 01:18:00,38.6,32.3,29.76,SSW,192,6.0,11.0,78,0.00,,---,0.00,VWS V14.01,2013-02-14 07:18:00,
2013-02-14 01:23:00,38.7,32.4,29.76,South,183,5.0,11.0,78,0.00,,---,0.00,VWS V14.01,2013-02-14 07:23:00,
2013-02-14 01:28:00,38.6,32.3,29.75,SW,215,7.0,11.0,78,0.00,,---,0.00,VWS V14.01,2013-02-14 07:28:00,
2013-02-14 01:30:00,38.6,32.3,29.75,SW,215,7.0,11.0,78,0.00,,---,0.00,VWS V14.01,2013-02-14 07:30:00,
2013-02-14 01:33:00,38.6,32.3,29.75,SSW,196,2.0,9.0,78,0.00,,---,0.00,VWS V14.01,2013-02-14 07:33:00,
2013-02-14 01:38:00,38.5,32.2,29.75,SSW,193,3.0,9.0,78,0.00,,---,0.00,VWS V14.01,2013-02-14 07:38:00,
2013-02-14 01:44:00,38.4,32.5,29.75,South,190,4.0,9.0,79,0.00,,---,0.00,VWS V14.01,2013-02-14 07:44:00,
2013-02-14 01:49:00,38.4,32.5,29.75,SSW,195,3.0,9.0,79,0.00,,---,0.00,VWS V14.01,2013-02-14 07:49:00,
2013-02-14 01:54:00,38.5,32.6,29.75,SSW,196,4.0,9.0,79,0.00,,---,0.00,VWS V14.01,2013-02-14 07:54:00,
2013-02-14 01:59:00,38.5,32.6,29.75,South,190,2.0,5.0,79,0.00,,---,0.00,VWS V14.01,2013-02-14 07:59:00,
2013-02-14 02:00:00,38.4,32.8,29.74,SSW,193,3.0,8.0,80,0.00,,---,0.00,VWS V14.01,2013-02-14 08:00:00,
2013-02-14 02:04:00,38.4,32.5,29.75,South,190,5.0,7.0,79,0.00,,---,0.00,VWS V14.01,2013-02-14 08:04:00,
2013-02-14 02:09:00,38.3,32.4,29.75,SSW,195,1.0,7.0,79,0.00,,---,0.00,VWS V14.01,2013-02-14 08:09:00,
2013-02-14 02:14:00,38.3,32.4,29.75,SSW,195,2.0,7.0,79,0.00,,---,0.00,VWS V14.01,2013-02-14 08:14:00,
2013-02-14 02:19:00,38.2,32.6,29.75,South,190,2.0,9.0,80,0.00,,---,0.00,VWS V14.01,2013-02-14 08:19:00,
2013-02-14 02:24:00,38.2,32.6,29.74,SW,228,4.0,10.0,80,0.00,,---,0.00,VWS V14.01,2013-02-14 08:24:00,
2013-02-14 02:29:00,38.3,32.7,29.74,SSW,196,4.0,6.0,80,0.00,,---,0.00,VWS V14.01,2013-02-14 08:29:00,
2013-02-14 02:30:00,38.2,32.6,29.74,SW,224,2.0,8.0,80,0.00,,---,0.00,VWS V14.01,2013-02-14 08:30:00,
2013-02-14 02:34:00,38.3,32.7,29.74,South,188,5.0,8.0,80,0.00,,---,0.00,VWS V14.01,2013-02-14 08:34:00,
2013-02-14 02:39:00,38.3,32.7,29.74,SSW,192,7.0,8.0,80,0.00,,---,0.00,VWS V14.01,2013-02-14 08:39:00,
2013-02-14 02:44:00,38.3,32.7,29.74,SSW,194,3.0,8.0,80,0.00,,---,0.00,VWS V14.01,2013-02-14 08:44:00,
2013-02-14 02:49:00,38.4,32.8,29.74,SSW,208,4.0,8.0,80,0.00,,---,0.00,VWS V14.01,2013-02-14 08:49:00,
2013-02-14 02:55:00,38.4,32.8,29.73,SW,219,1.0,8.0,80,0.00,,---,0.00,VWS V14.01,2013-02-14 08:55:00,
2013-02-14 03:00:00,38.3,32.7,29.74,SSW,193,2.0,5.0,80,0.00,,---,0.00,VWS V14.01,2013-02-14 09:00:00,
2013-02-14 03:05:00,38.3,32.7,29.74,SW,222,0.0,6.0,80,0.00,,---,0.00,VWS V14.01,2013-02-14 09:05:00,
2013-02-14 03:10:00,38.2,32.6,29.74,SW,227,4.0,7.0,80,0.00,,---,0.00,VWS V14.01,2013-02-14 09:10:00,
2013-02-14 03:15:00,38.2,32.6,29.74,WSW,246,2.0,7.0,80,0.00,,---,0.00,VWS V14.01,2013-02-14 09:15:00,
2013-02-14 03:20:00,38.3,32.7,29.74,SW,215,1.0,8.0,80,0.00,,---,0.00,VWS V14.01,2013-02-14 09:20:00,
2013-02-14 03:25:00,38.2,32.6,29.74,SW,231,2.0,8.0,80,0.00,,---,0.00,VWS V14.01,2013-02-14 09:25:00,
2013-02-14 03:30:00,38.1,32.5,29.74,SW,226,3.0,5.0,80,0.00,,---,0.00,VWS V14.01,2013-02-14 09:30:00,
2013-02-14 03:35:00,38.0,32.7,29.74,SW,233,3.0,6.0,81,0.00,,---,0.00,VWS V14.01,2013-02-14 09:35:00,
2013-02-14 03:40:00,38.0,32.7,29.74,SW,232,1.0,7.0,81,0.00,,---,0.00,VWS V14.01,2013-02-14 09:40:00,
2013-02-14 03:45:00,37.9,32.6,29.74,SW,232,1.0,7.0,81,0.00,,---,0.00,VWS V14.01,2013-02-14 09:45:00,
2013-02-14 03:50:00,37.8,32.5,29.74,SW,235,4.0,7.0,81,0.00,,---,0.00,VWS V14.01,2013-02-14 09:50:00,
2013-02-14 03:55:00,37.7,32.4,29.73,SW,232,1.0,7.0,81,0.00,,---,0.00,VWS V14.01,2013-02-14 09:55:00,
2013-02-14 04:00:00,37.8,32.5,29.73,SW,231,5.0,7.0,81,0.00,,---,0.00,VWS V14.01,2013-02-14 10:00:00,
2013-02-14 04:05:00,37.9,32.6,29.74,SW,231,7.0,8.0,81,0.00,,---,0.00,VWS V14.01,2013-02-14 10:05:00,
2013-02-14 04:11:00,38.0,32.7,29.73,SW,226,10.0,10.0,81,0.00,,---,0.00,VWS V14.01,2013-02-14 10:11:00,
2013-02-14 04:16:00,38.0,32.7,29.74,WSW,240,4.0,10.0,81,0.00,,---,0.00,VWS V14.01,2013-02-14 10:16:00,
2013-02-14 04:21:00,38.0,32.7,29.74,SW,234,5.0,10.0,81,0.00,,---,0.00,VWS V14.01,2013-02-14 10:21:00,
2013-02-14 04:26:00,38.0,32.7,29.74,SW,229,5.0,13.0,81,0.00,,---,0.00,VWS V14.01,2013-02-14 10:26:00,
2013-02-14 04:30:00,36.5,32.1,29.75,SW,236,6.0,11.0,84,0.00,,---,0.00,VWS V14.01,2013-02-14 10:30:00,
2013-02-14 04:31:00,37.9,32.6,29.74,SW,228,4.0,11.0,81,0.00,,---,0.00,VWS V14.01,2013-02-14 10:31:00,
2013-02-14 04:36:00,37.8,32.5,29.74,WSW,243,7.0,12.0,81,0.00,,---,0.00,VWS V14.01,2013-02-14 10:36:00,
2013-02-14 04:41:00,37.6,32.6,29.74,WSW,239,6.0,12.0,82,0.00,,---,0.00,VWS V14.01,2013-02-14 10:41:00,
2013-02-14 04:46:00,37.5,32.5,29.75,SW,234,4.0,12.0,82,0.00,,---,0.00,VWS V14.01,2013-02-14 10:46:00,
2013-02-14 04:51:00,37.3,32.3,29.74,SW,226,7.0,12.0,82,0.00,,---,0.00,VWS V14.01,2013-02-14 10:51:00,
2013-02-14 04:56:00,37.2,32.5,29.75,SW,233,4.0,12.0,83,0.00,,---,0.00,VWS V14.01,2013-02-14 10:56:00,
2013-02-14 05:00:00,36.1,31.7,29.75,SW,230,5.0,9.0,84,0.00,,---,0.00,VWS V14.01,2013-02-14 11:00:00,
2013-02-14 05:01:00,37.1,32.4,29.75,SW,231,4.0,10.0,83,0.00,,---,0.00,VWS V14.01,2013-02-14 11:01:00,
2013-02-14 05:06:00,37.0,32.3,29.75,WSW,239,4.0,11.0,83,0.00,,---,0.00,VWS V14.01,2013-02-14 11:06:00,
2013-02-14 05:11:00,36.8,32.1,29.75,WSW,240,8.0,11.0,83,0.00,,---,0.00,VWS V14.01,2013-02-14 11:11:00,
2013-02-14 05:16:00,36.8,32.1,29.75,WSW,251,3.0,11.0,83,0.00,,---,0.00,VWS V14.01,2013-02-14 11:16:00,
2013-02-14 05:22:00,36.6,32.2,29.75,WSW,240,3.0,11.0,84,0.00,,---,0.00,VWS V14.01,2013-02-14 11:22:00,
2013-02-14 05:27:00,36.5,32.1,29.75,SSW,199,0.0,11.0,84,0.00,,---,0.00,VWS V14.01,2013-02-14 11:27:00,
2013-02-14 05:30:00,35.7,31.6,29.75,WSW,240,2.0,10.0,85,0.00,,---,0.00,VWS V14.01,2013-02-14 11:30:00,
2013-02-14 05:32:00,36.5,32.1,29.75,WSW,237,4.0,9.0,84,0.00,,---,0.00,VWS V14.01,2013-02-14 11:32:00,
2013-02-14 05:37:00,36.4,32.0,29.75,SW,230,4.0,9.0,84,0.00,,---,0.00,VWS V14.01,2013-02-14 11:37:00,
2013-02-14 05:42:00,36.4,32.0,29.75,WSW,238,4.0,9.0,84,0.00,,---,0.00,VWS V14.01,2013-02-14 11:42:00,
2013-02-14 05:47:00,36.3,31.9,29.75,WSW,238,4.0,9.0,84,0.00,,---,0.00,VWS V14.01,2013-02-14 11:47:00,
2013-02-14 05:52:00,36.2,31.8,29.75,SW,227,3.0,9.0,84,0.00,,---,0.00,VWS V14.01,2013-02-14 11:52:00,
2013-02-14 05:57:00,36.2,31.8,29.75,SW,232,5.0,9.0,84,0.00,,---,0.00,VWS V14.01,2013-02-14 11:57:00,
2013-02-14 06:00:00,36.3,31.6,29.77,WSW,241,10.0,15.0,83,0.00,,---,0.00,VWS V14.01,2013-02-14 12:00:00,
2013-02-14 06:02:00,36.1,31.7,29.75,WSW,237,0.0,10.0,84,0.00,,---,0.00,VWS V14.01,2013-02-14 12:02:00,
2013-02-14 06:07:00,36.0,31.6,29.75,SW,236,1.0,10.0,84,0.00,,---,0.00,VWS V14.01,2013-02-14 12:07:00,
2013-02-14 06:13:00,36.0,31.6,29.75,WSW,240,1.0,10.0,84,0.00,,---,0.00,VWS V14.01,2013-02-14 12:13:00,
2013-02-14 06:18:00,35.9,31.5,29.75,WSW,241,4.0,10.0,84,0.00,,---,0.00,VWS V14.01,2013-02-14 12:18:00,
2013-02-14 06:23:00,35.9,31.5,29.76,SW,223,0.0,10.0,84,0.00,,---,0.00,VWS V14.01,2013-02-14 12:23:00,
2013-02-14 06:29:00,35.7,31.6,29.75,WSW,246,4.0,4.0,85,0.00,,---,0.00,VWS V14.01,2013-02-14 12:29:00,
2013-02-14 06:30:00,37.2,31.9,29.78,WSW,258,14.0,15.0,81,0.00,,---,0.00,VWS V14.01,2013-02-14 12:30:00,
2013-02-14 06:34:00,35.8,31.7,29.76,WSW,249,5.0,9.0,85,0.00,,---,0.00,VWS V14.01,2013-02-14 12:34:00,
2013-02-14 06:39:00,35.9,31.5,29.76,WSW,250,6.0,11.0,84,0.00,,---,0.00,VWS V14.01,2013-02-14 12:39:00,
2013-02-14 06:44:00,36.1,31.7,29.77,WSW,240,14.0,14.0,84,0.00,,---,0.00,VWS V14.01,2013-02-14 12:44:00,
2013-02-14 06:49:00,36.3,31.6,29.77,WSW,244,10.0,15.0,83,0.00,,---,0.00,VWS V14.01,2013-02-14 12:49:00,
2013-02-14 06:54:00,36.3,31.6,29.77,WSW,249,9.0,15.0,83,0.00,,---,0.00,VWS V14.01,2013-02-14 12:54:00,
2013-02-14 06:59:00,36.3,31.6,29.77,SW,235,10.0,12.0,83,0.00,,---,0.00,VWS V14.01,2013-02-14 12:59:00,
2013-02-14 07:00:00,37.4,31.8,29.80,WSW,253,10.0,17.0,80,0.00,,---,0.00,VWS V14.01,2013-02-14 13:00:00,
2013-02-14 07:04:00,36.2,31.5,29.77,WSW,250,9.0,12.0,83,0.00,,---,0.00,VWS V14.01,2013-02-14 13:04:00,
2013-02-14 07:10:00,36.2,31.5,29.77,WSW,248,6.0,12.0,83,0.00,,---,0.00,VWS V14.01,2013-02-14 13:10:00,
2013-02-14 07:15:00,36.6,31.6,29.78,WSW,257,10.0,15.0,82,0.00,,---,0.00,VWS V14.01,2013-02-14 13:15:00,
2013-02-14 07:20:00,36.8,31.8,29.78,WSW,247,12.0,15.0,82,0.00,,---,0.00,VWS V14.01,2013-02-14 13:20:00,
2013-02-14 07:25:00,37.0,31.7,29.78,West,261,10.0,15.0,81,0.00,,---,0.00,VWS V14.01,2013-02-14 13:25:00,
2013-02-14 07:30:00,37.2,31.9,29.78,WSW,256,12.0,14.0,81,0.00,,---,0.00,VWS V14.01,2013-02-14 13:30:00,
2013-02-14 07:35:00,37.3,31.7,29.79,WSW,252,11.0,17.0,80,0.00,,---,0.00,VWS V14.01,2013-02-14 13:35:00,
2013-02-14 07:40:00,37.2,31.6,29.79,West,259,11.0,17.0,80,0.00,,---,0.00,VWS V14.01,2013-02-14 13:40:00,
2013-02-14 07:45:00,37.1,31.8,29.79,WSW,253,12.0,17.0,81,0.00,,---,0.00,VWS V14.01,2013-02-14 13:45:00,
2013-02-14 07:51:00,37.1,31.8,29.79,WSW,242,13.0,17.0,81,0.00,,---,0.00,VWS V14.01,2013-02-14 13:51:00,
2013-02-14 07:56:00,37.4,31.8,29.79,WSW,238,7.0,17.0,80,0.00,,---,0.00,VWS V14.01,2013-02-14 13:56:00,
2013-02-14 08:00:00,37.9,32.0,29.82,West,267,22.0,29.0,79,0.00,,---,0.00,VWS V14.01,2013-02-14 14:00:00,
2013-02-14 08:01:00,37.4,31.8,29.80,WSW,242,10.0,13.0,80,0.00,,---,0.00,VWS V14.01,2013-02-14 14:01:00,
2013-02-14 08:06:00,37.5,31.9,29.80,West,268,15.0,25.0,80,0.00,,---,0.00,VWS V14.01,2013-02-14 14:06:00,
2013-02-14 08:11:00,37.5,31.9,29.80,West,271,19.0,25.0,80,0.00,,---,0.00,VWS V14.01,2013-02-14 14:11:00,
2013-02-14 08:16:00,37.5,31.9,29.81,West,261,21.0,25.0,80,0.00,,---,0.00,VWS V14.01,2013-02-14 14:16:00,
2013-02-14 08:21:00,37.6,32.0,29.81,West,261,19.0,27.0,80,0.00,,---,0.00,VWS V14.01,2013-02-14 14:21:00,
2013-02-14 08:26:00,37.5,31.9,29.81,West,261,20.0,27.0,80,0.00,,---,0.00,VWS V14.01,2013-02-14 14:26:00,
2013-02-14 08:30:00,37.8,32.2,29.83,West,271,17.0,22.0,80,0.00,,---,0.00,VWS V14.01,2013-02-14 14:30:00,
2013-02-14 08:31:00,37.6,32.0,29.81,West,274,19.0,19.0,80,0.00,,---,0.00,VWS V14.01,2013-02-14 14:31:00,
2013-02-14 08:37:00,37.7,32.1,29.81,WSW,256,16.0,20.0,80,0.00,,---,0.00,VWS V14.01,2013-02-14 14:37:00,
2013-02-14 08:42:00,37.7,32.1,29.82,West,269,19.0,24.0,80,0.00,,---,0.00,VWS V14.01,2013-02-14 14:42:00,
2013-02-14 08:47:00,37.7,32.1,29.82,West,267,18.0,24.0,80,0.00,,---,0.00,VWS V14.01,2013-02-14 14:47:00,
2013-02-14 08:52:00,37.8,31.9,29.82,West,262,16.0,24.0,79,0.00,,---,0.00,VWS V14.01,2013-02-14 14:52:00,
2013-02-14 08:57:00,37.9,32.0,29.82,West,275,24.0,29.0,79,0.00,,---,0.00,VWS V14.01,2013-02-14 14:57:00,
2013-02-14 09:00:00,38.0,32.1,29.85,West,265,10.0,25.0,79,0.00,,---,0.00,VWS V14.01,2013-02-14 15:00:00,
2013-02-14 09:02:00,37.8,31.9,29.82,West,269,18.0,22.0,79,0.00,,---,0.00,VWS V14.01,2013-02-14 15:02:00,
2013-02-14 09:07:00,37.8,32.2,29.82,West,276,13.0,22.0,80,0.00,,---,0.00,VWS V14.01,2013-02-14 15:07:00,
2013-02-14 09:12:00,37.8,32.2,29.82,West,270,14.0,22.0,80,0.00,,---,0.00,VWS V14.01,2013-02-14 15:12:00,
2013-02-14 09:17:00,37.8,32.2,29.82,West,265,18.0,22.0,80,0.00,,---,0.00,VWS V14.01,2013-02-14 15:17:00,
2013-02-14 09:23:00,37.9,32.3,29.83,WSW,254,15.0,22.0,80,0.00,,---,0.00,VWS V14.01,2013-02-14 15:23:00,
2013-02-14 09:28:00,37.8,32.2,29.83,West,263,18.0,22.0,80,0.00,,---,0.00,VWS V14.01,2013-02-14 15:28:00,
2013-02-14 09:30:00,37.9,31.4,29.86,West,271,15.0,26.0,77,0.00,,---,0.00,VWS V14.01,2013-02-14 15:30:00,
2013-02-14 09:33:00,37.9,32.3,29.83,West,261,17.0,21.0,80,0.00,,---,0.00,VWS V14.01,2013-02-14 15:33:00,
2013-02-14 09:38:00,37.9,32.3,29.83,West,274,17.0,24.0,80,0.00,,---,0.00,VWS V14.01,2013-02-14 15:38:00,
2013-02-14 09:43:00,38.0,32.4,29.84,West,263,16.0,24.0,80,0.00,,---,0.00,VWS V14.01,2013-02-14 15:43:00,
2013-02-14 09:48:00,38.0,32.1,29.84,West,260,14.0,24.0,79,0.00,,---,0.00,VWS V14.01,2013-02-14 15:48:00,
2013-02-14 09:53:00,38.1,32.2,29.84,West,268,18.0,25.0,79,0.00,,---,0.00,VWS V14.01,2013-02-14 15:53:00,
2013-02-14 09:58:00,38.0,32.1,29.85,West,260,10.0,10.0,79,0.00,,---,0.00,VWS V14.01,2013-02-14 15:58:00,
2013-02-14 10:00:00,38.1,31.9,29.88,West,266,22.0,28.0,78,0.00,,---,0.00,VWS V14.01,2013-02-14 16:00:00,
2013-02-14 10:03:00,38.0,32.1,29.85,West,265,13.0,21.0,79,0.00,,---,0.00,VWS V14.01,2013-02-14 16:03:00,
2013-02-14 10:08:00,37.9,32.0,29.86,West,273,18.0,22.0,79,0.00,,---,0.00,VWS V14.01,2013-02-14 16:08:00,
2013-02-14 10:14:00,37.8,31.9,29.86,WNW,287,14.0,23.0,79,0.00,,---,0.00,VWS V14.01,2013-02-14 16:14:00,
2013-02-14 10:19:00,37.8,32.2,29.86,West,273,12.0,23.0,80,0.00,,---,0.00,VWS V14.01,2013-02-14 16:19:00,
2013-02-14 10:24:00,37.9,32.0,29.86,West,264,17.0,23.0,79,0.00,,---,0.00,VWS V14.01,2013-02-14 16:24:00,
2013-02-14 10:29:00,37.9,31.7,29.86,West,265,16.0,20.0,78,0.00,,---,0.00,VWS V14.01,2013-02-14 16:29:00,
2013-02-14 10:30:00,38.2,32.0,29.88,WSW,256,22.0,27.0,78,0.00,,---,0.00,VWS V14.01,2013-02-14 16:30:00,
2013-02-14 10:34:00,38.0,31.4,29.87,West,271,18.0,28.0,77,0.00,,---,0.00,VWS V14.01,2013-02-14 16:34:00,
2013-02-14 10:39:00,38.0,31.4,29.87,WSW,257,20.0,28.0,77,0.00,,---,0.00,VWS V14.01,2013-02-14 16:39:00,
2013-02-14 10:44:00,38.0,31.8,29.87,WSW,257,21.0,28.0,78,0.00,,---,0.00,VWS V14.01,2013-02-14 16:44:00,
2013-02-14 10:50:00,38.0,31.8,29.87,WSW,257,17.0,28.0,78,0.00,,---,0.00,VWS V14.01,2013-02-14 16:50:00,
2013-02-14 10:55:00,38.1,31.5,29.87,West,267,17.0,28.0,77,0.00,,---,0.00,VWS V14.01,2013-02-14 16:55:00,
2013-02-14 11:00:00,38.1,31.5,29.88,West,272,22.0,24.0,77,0.00,,---,0.00,VWS V14.01,2013-02-14 17:00:00,
2013-02-14 11:05:00,38.0,31.4,29.88,West,277,20.0,27.0,77,0.00,,---,0.00,VWS V14.01,2013-02-14 17:05:00,
2013-02-14 11:10:00,38.1,31.5,29.88,West,266,18.0,27.0,77,0.00,,---,0.00,VWS V14.01,2013-02-14 17:10:00,
2013-02-14 11:15:00,38.2,32.0,29.88,West,268,14.0,27.0,78,0.00,,---,0.00,VWS V14.01,2013-02-14 17:15:00,
2013-02-14 11:20:00,38.2,31.6,29.88,WSW,255,25.0,27.0,77,0.00,,---,0.00,VWS V14.01,2013-02-14 17:20:00,
2013-02-14 11:25:00,38.2,32.0,29.88,WSW,256,22.0,27.0,78,0.00,,---,0.00,VWS V14.01,2013-02-14 17:25:00,
2013-02-14 11:30:00,38.2,32.0,29.88,WSW,256,22.0,22.0,78,0.00,,---,0.00,VWS V14.01,2013-02-14 17:30:00,
2013-02-14 11:36:00,38.3,31.7,29.88,West,271,16.0,26.0,77,0.00,,---,0.00,VWS V14.01,2013-02-14 17:36:00,
2013-02-14 11:41:00,38.4,31.8,29.88,West,267,20.0,26.0,77,0.00,,---,0.00,VWS V14.01,2013-02-14 17:41:00,
2013-02-14 11:46:00,38.4,32.2,29.88,West,276,15.0,26.0,78,0.00,,---,0.00,VWS V14.01,2013-02-14 17:46:00,
2013-02-14 11:51:00,38.6,32.0,29.88,West,267,15.0,26.0,77,0.00,,---,0.00,VWS V14.01,2013-02-14 17:51:00,
2013-02-14 11:56:00,38.8,32.5,29.88,West,271,14.0,26.0,78,0.00,,---,0.00,VWS V14.01,2013-02-14 17:56:00,
2013-02-14 12:00:00,39.7,32.4,29.89,West,265,19.0,26.0,75,0.00,,---,0.00,VWS V14.01,2013-02-14 18:00:00,
2013-02-14 12:01:00,38.8,32.2,29.88,West,265,17.0,23.0,77,0.00,,---,0.00,VWS V14.01,2013-02-14 18:01:00,
2013-02-14 12:06:00,38.8,31.9,29.88,West,265,15.0,24.0,76,0.00,,---,0.00,VWS V14.01,2013-02-14 18:06:00,
2013-02-14 12:11:00,39.1,32.8,29.88,West,259,13.0,24.0,78,0.00,,---,0.00,VWS V14.01,2013-02-14 18:11:00,
2013-02-14 12:16:00,39.1,32.2,29.89,West,273,14.0,24.0,76,0.00,,---,0.00,VWS V14.01,2013-02-14 18:16:00,
2013-02-14 12:22:00,39.2,32.6,29.89,West,267,20.0,24.0,77,0.00,,---,0.00,VWS V14.01,2013-02-14 18:22:00,
2013-02-14 12:27:00,39.2,32.3,29.89,West,265,18.0,24.0,76,0.00,,---,0.00,VWS V14.01,2013-02-14 18:27:00,
2013-02-14 12:30:00,39.6,32.7,29.90,West,266,12.0,29.0,76,0.00,,---,0.00,VWS V14.01,2013-02-14 18:30:00,
2013-02-14 12:32:00,39.2,32.3,29.89,West,265,14.0,22.0,76,0.00,,---,0.00,VWS V14.01,2013-02-14 18:32:00,
2013-02-14 12:37:00,39.3,32.0,29.89,West,259,16.0,25.0,75,0.00,,---,0.00,VWS V14.01,2013-02-14 18:37:00,
2013-02-14 12:42:00,39.4,32.5,29.88,West,275,17.0,25.0,76,0.00,,---,0.00,VWS V14.01,2013-02-14 18:42:00,
2013-02-14 12:47:00,39.6,32.7,29.89,West,267,17.0,25.0,76,0.00,,---,0.00,VWS V14.01,2013-02-14 18:47:00,
2013-02-14 12:52:00,39.6,32.0,29.89,WSW,257,14.0,26.0,74,0.00,,---,0.00,VWS V14.01,2013-02-14 18:52:00,
2013-02-14 12:57:00,39.8,32.5,29.89,WSW,257,17.0,26.0,75,0.00,,---,0.00,VWS V14.01,2013-02-14 18:57:00,
2013-02-14 13:00:00,40.1,32.8,29.91,West,259,19.0,28.0,75,0.00,,---,0.00,VWS V14.01,2013-02-14 19:00:00,
2013-02-14 13:02:00,39.7,32.8,29.89,WSW,258,15.0,23.0,76,0.00,,---,0.00,VWS V14.01,2013-02-14 19:02:00,
2013-02-14 13:07:00,39.8,33.2,29.90,WSW,247,18.0,23.0,77,0.00,,---,0.00,VWS V14.01,2013-02-14 19:07:00,
2013-02-14 13:13:00,39.5,32.6,29.90,West,261,23.0,29.0,76,0.00,,---,0.00,VWS V14.01,2013-02-14 19:13:00,
2013-02-14 13:18:00,39.5,32.6,29.90,West,273,13.0,29.0,76,0.00,,---,0.00,VWS V14.01,2013-02-14 19:18:00,
2013-02-14 13:23:00,39.5,32.2,29.90,WSW,256,15.0,29.0,75,0.00,,---,0.00,VWS V14.01,2013-02-14 19:23:00,
2013-02-14 13:28:00,39.6,32.7,29.90,West,270,14.0,29.0,76,0.00,,---,0.00,VWS V14.01,2013-02-14 19:28:00,
2013-02-14 13:30:00,39.1,31.2,29.92,West,259,18.0,25.0,73,0.00,,---,0.00,VWS V14.01,2013-02-14 19:30:00,
2013-02-14 13:33:00,39.6,32.3,29.90,West,266,18.0,26.0,75,0.00,,---,0.00,VWS V14.01,2013-02-14 19:33:00,
2013-02-14 13:38:00,39.7,31.8,29.91,West,259,20.0,28.0,73,0.00,,---,0.00,VWS V14.01,2013-02-14 19:38:00,
2013-02-14 13:43:00,39.6,32.0,29.90,West,264,18.0,28.0,74,0.00,,---,0.00,VWS V14.01,2013-02-14 19:43:00,
2013-02-14 13:48:00,39.7,32.4,29.90,West,267,20.0,28.0,75,0.00,,---,0.00,VWS V14.01,2013-02-14 19:48:00,
2013-02-14 13:54:00,39.8,32.2,29.90,West,269,22.0,28.0,74,0.00,,---,0.00,VWS V14.01,2013-02-14 19:54:00,
2013-02-14 13:59:00,40.1,32.2,29.91,West,263,15.0,19.0,73,0.00,,---,0.00,VWS V14.01,2013-02-14 19:59:00,
2013-02-14 14:00:00,38.8,31.9,29.94,West,261,16.0,25.0,76,0.00,,---,0.00,VWS V14.01,2013-02-14 20:00:00,
2013-02-14 14:04:00,39.9,32.6,29.91,West,271,17.0,24.0,75,0.00,,---,0.00,VWS V14.01,2013-02-14 20:04:00,
2013-02-14 14:09:00,39.7,32.1,29.91,West,269,16.0,24.0,74,0.00,,---,0.00,VWS V14.01,2013-02-14 20:09:00,
2013-02-14 14:14:00,39.5,31.9,29.92,West,263,20.0,25.0,74,0.00,,---,0.00,VWS V14.01,2013-02-14 20:14:00,
2013-02-14 14:19:00,39.3,31.7,29.92,West,259,14.0,25.0,74,0.00,,---,0.00,VWS V14.01,2013-02-14 20:19:00,
2013-02-14 14:24:00,39.2,31.6,29.92,WSW,250,24.0,25.0,74,0.00,,---,0.00,VWS V14.01,2013-02-14 20:24:00,
2013-02-14 14:30:00,39.1,31.2,29.92,WSW,258,9.0,18.0,73,0.00,,---,0.00,VWS V14.01,2013-02-14 20:30:00,
2013-02-14 14:35:00,39.0,31.8,29.92,West,259,13.0,20.0,75,0.00,,---,0.00,VWS V14.01,2013-02-14 20:35:00,
2013-02-14 14:40:00,38.9,32.0,29.93,West,273,12.0,24.0,76,0.00,,---,0.00,VWS V14.01,2013-02-14 20:40:00,
2013-02-14 14:45:00,38.8,32.2,29.93,West,269,15.0,24.0,77,0.00,,---,0.00,VWS V14.01,2013-02-14 20:45:00,
2013-02-14 14:50:00,38.8,31.9,29.93,West,261,12.0,25.0,76,0.00,,---,0.00,VWS V14.01,2013-02-14 20:50:00,
2013-02-14 14:55:00,38.8,31.9,29.93,West,268,14.0,25.0,76,0.00,,---,0.00,VWS V14.01,2013-02-14 20:55:00,
2013-02-14 15:00:00,38.7,31.8,29.94,West,271,18.0,22.0,76,0.00,,---,0.00,VWS V14.01,2013-02-14 21:00:00,
2013-02-14 15:05:00,38.7,31.5,29.94,West,260,20.0,22.0,75,0.00,,---,0.00,VWS V14.01,2013-02-14 21:05:00,
2013-02-14 15:10:00,38.7,31.5,29.94,WSW,255,12.0,22.0,75,0.00,,---,0.00,VWS V14.01,2013-02-14 21:10:00,
2013-02-14 15:16:00,38.6,31.0,29.95,WSW,255,14.0,23.0,74,0.00,,---,0.00,VWS V14.01,2013-02-14 21:16:00,
2013-02-14 15:21:00,38.6,31.4,29.95,West,263,10.0,23.0,75,0.00,,---,0.00,VWS V14.01,2013-02-14 21:21:00,
2013-02-14 15:26:00,38.6,31.4,29.95,West,269,14.0,23.0,75,0.00,,---,0.00,VWS V14.01,2013-02-14 21:26:00,
2013-02-14 15:30:00,38.7,30.1,29.98,WSW,257,16.0,27.0,71,0.00,,---,0.00,VWS V14.01,2013-02-14 21:30:00,
2013-02-14 15:31:00,38.6,31.7,29.95,West,266,19.0,22.0,76,0.00,,---,0.00,VWS V14.01,2013-02-14 21:31:00,
2013-02-14 15:36:00,38.6,31.0,29.95,West,263,13.0,22.0,74,0.00,,---,0.00,VWS V14.01,2013-02-14 21:36:00,
2013-02-14 15:41:00,38.7,31.1,29.96,West,265,20.0,22.0,74,0.00,,---,0.00,VWS V14.01,2013-02-14 21:41:00,
2013-02-14 15:46:00,38.8,31.2,29.96,WSW,250,16.0,22.0,74,0.00,,---,0.00,VWS V14.01,2013-02-14 21:46:00,
2013-02-14 15:51:00,38.9,31.0,29.96,West,263,15.0,22.0,73,0.00,,---,0.00,VWS V14.01,2013-02-14 21:51:00,
2013-02-14 15:57:00,38.9,31.0,29.96,West,260,20.0,22.0,73,0.00,,---,0.00,VWS V14.01,2013-02-14 21:57:00,
2013-02-14 16:00:00,38.2,31.0,29.99,WSW,249,15.0,24.0,75,0.00,,---,0.00,VWS V14.01,2013-02-14 22:00:00,
2013-02-14 16:02:00,38.9,31.0,29.96,WSW,258,24.0,27.0,73,0.00,,---,0.00,VWS V14.01,2013-02-14 22:02:00,
2013-02-14 16:07:00,38.8,30.2,29.97,WSW,252,19.0,27.0,71,0.00,,---,0.00,VWS V14.01,2013-02-14 22:07:00,
2013-02-14 16:12:00,38.7,30.8,29.97,WSW,248,17.0,27.0,73,0.00,,---,0.00,VWS V14.01,2013-02-14 22:12:00,
2013-02-14 16:17:00,38.6,30.4,29.97,West,269,16.0,27.0,72,0.00,,---,0.00,VWS V14.01,2013-02-14 22:17:00,
2013-02-14 16:22:00,38.6,30.0,29.97,West,273,23.0,27.0,71,0.00,,---,0.00,VWS V14.01,2013-02-14 22:22:00,
2013-02-14 16:27:00,38.7,30.5,29.98,West,268,17.0,27.0,72,0.00,,---,0.00,VWS V14.01,2013-02-14 22:27:00,
2013-02-14 16:30:00,38.0,31.4,30.00,West,261,10.0,19.0,77,0.00,,---,0.00,VWS V14.01,2013-02-14 22:30:00,
2013-02-14 16:33:00,38.6,30.0,29.98,West,273,16.0,22.0,71,0.00,,---,0.00,VWS V14.01,2013-02-14 22:33:00,
2013-02-14 16:38:00,38.6,30.0,29.97,West,260,15.0,24.0,71,0.00,,---,0.00,VWS V14.01,2013-02-14 22:38:00,
2013-02-14 16:43:00,38.5,29.9,29.98,WSW,252,17.0,24.0,71,0.00,,---,0.00,VWS V14.01,2013-02-14 22:43:00,
2013-02-14 16:48:00,38.4,30.5,29.98,West,262,16.0,24.0,73,0.00,,---,0.00,VWS V14.01,2013-02-14 22:48:00,
2013-02-14 16:53:00,38.3,30.8,29.99,WSW,254,11.0,24.0,74,0.00,,---,0.00,VWS V14.01,2013-02-14 22:53:00,
2013-02-14 16:58:00,38.2,31.0,29.99,WSW,249,15.0,24.0,75,0.00,,---,0.00,VWS V14.01,2013-02-14 22:58:00,
2013-02-14 17:00:00,36.8,30.9,29.99,WSW,250,5.0,16.0,79,0.00,,---,0.00,VWS V14.01,2013-02-14 23:00:00,
2013-02-14 17:03:00,38.2,31.0,29.99,West,265,13.0,19.0,75,0.00,,---,0.00,VWS V14.01,2013-02-14 23:03:00,
2013-02-14 17:08:00,38.2,31.3,29.99,WSW,245,11.0,19.0,76,0.00,,---,0.00,VWS V14.01,2013-02-14 23:08:00,
2013-02-14 17:14:00,38.2,31.3,29.99,West,260,13.0,19.0,76,0.00,,---,0.00,VWS V14.01,2013-02-14 23:14:00,
2013-02-14 17:19:00,38.1,31.2,29.99,West,263,15.0,19.0,76,0.00,,---,0.00,VWS V14.01,2013-02-14 23:19:00,
2013-02-14 17:24:00,38.1,31.5,29.99,WSW,247,7.0,19.0,77,0.00,,---,0.00,VWS V14.01,2013-02-14 23:24:00,
2013-02-14 17:29:00,37.9,31.4,30.00,West,265,12.0,16.0,77,0.00,,---,0.00,VWS V14.01,2013-02-14 23:29:00,
2013-02-14 17:30:00,36.2,30.3,30.00,WSW,251,4.0,6.0,79,0.00,,---,0.00,VWS V14.01,2013-02-14 23:30:00,
2013-02-14 17:34:00,37.8,31.2,29.99,West,269,10.0,16.0,77,0.00,,---,0.00,VWS V14.01,2013-02-14 23:34:00,
2013-02-14 17:39:00,37.5,31.3,29.99,WSW,243,7.0,16.0,78,0.00,,---,0.00,VWS V14.01,2013-02-14 23:39:00,
2013-02-14 17:44:00,37.2,31.0,29.99,WSW,251,7.0,16.0,78,0.00,,---,0.00,VWS V14.01,2013-02-14 23:44:00,
2013-02-14 17:49:00,37.0,30.8,29.99,WSW,253,4.0,16.0,78,0.00,,---,0.00,VWS V14.01,2013-02-14 23:49:00,
2013-02-14 17:54:00,36.8,30.9,29.99,WSW,242,5.0,16.0,79,0.00,,---,0.00,VWS V14.01,2013-02-14 23:54:00,
2013-02-14 17:59:00,36.9,31.0,29.99,WSW,252,6.0,6.0,79,0.00,,---,0.00,VWS V14.01,2013-02-14 23:59:00,
2013-02-14 18:00:00,35.7,30.5,30.00,WSW,239,3.0,7.0,81,0.00,,---,0.00,VWS V14.01,2013-02-15 00:00:00,
2013-02-14 18:04:00,36.9,31.0,29.99,WSW,249,3.0,6.0,79,0.00,,---,0.00,VWS V14.01,2013-02-15 00:04:00,
2013-02-14 18:09:00,36.8,30.9,29.99,WSW,250,4.0,6.0,79,0.00,,---,0.00,VWS V14.01,2013-02-15 00:09:00,
2013-02-14 18:14:00,36.8,30.6,29.99,WSW,248,3.0,6.0,78,0.00,,---,0.00,VWS V14.01,2013-02-15 00:14:00,
2013-02-14 18:20:00,36.6,30.7,29.99,WSW,247,5.0,6.0,79,0.00,,---,0.00,VWS V14.01,2013-02-15 00:20:00,
2013-02-14 18:25:00,36.4,30.5,29.99,WSW,244,3.0,6.0,79,0.00,,---,0.00,VWS V14.01,2013-02-15 00:25:00,
2013-02-14 18:30:00,36.1,30.2,30.00,WSW,251,4.0,5.0,79,0.00,,---,0.00,VWS V14.01,2013-02-15 00:30:00,
2013-02-14 18:35:00,35.9,30.3,30.00,WSW,247,5.0,6.0,80,0.00,,---,0.00,VWS V14.01,2013-02-15 00:35:00,
2013-02-14 18:40:00,36.0,30.4,30.00,WSW,242,5.0,7.0,80,0.00,,---,0.00,VWS V14.01,2013-02-15 00:40:00,
2013-02-14 18:45:00,35.9,30.3,30.00,SW,236,4.0,7.0,80,0.00,,---,0.00,VWS V14.01,2013-02-15 00:45:00,
2013-02-14 18:50:00,35.8,30.5,30.00,WSW,239,4.0,7.0,81,0.00,,---,0.00,VWS V14.01,2013-02-15 00:50:00,
2013-02-14 18:55:00,35.8,30.5,30.00,WSW,240,2.0,7.0,81,0.00,,---,0.00,VWS V14.01,2013-02-15 00:55:00,
2013-02-14 19:00:00,35.7,30.5,30.01,WSW,244,3.0,4.0,81,0.00,,---,0.00,VWS V14.01,2013-02-15 01:00:00,
2013-02-14 19:06:00,35.7,30.5,30.01,WSW,245,1.0,4.0,81,0.00,,---,0.00,VWS V14.01,2013-02-15 01:06:00,
2013-02-14 19:11:00,35.6,30.4,30.01,WSW,241,2.0,4.0,81,0.00,,---,0.00,VWS V14.01,2013-02-15 01:11:00,
2013-02-14 19:16:00,35.6,30.4,30.01,WSW,241,3.0,4.0,81,0.00,,---,0.00,VWS V14.01,2013-02-15 01:16:00,
2013-02-14 19:21:00,35.6,30.4,30.01,WSW,241,1.0,4.0,81,0.00,,---,0.00,VWS V14.01,2013-02-15 01:21:00,
2013-02-14 19:26:00,35.6,30.4,30.01,WSW,241,1.0,4.0,81,0.00,,---,0.00,VWS V14.01,2013-02-15 01:26:00,
2013-02-14 19:30:00,36.9,31.3,30.02,West,269,8.0,13.0,80,0.00,,---,0.00,VWS V14.01,2013-02-15 01:30:00,
2013-02-14 19:31:00,35.6,30.4,30.01,WSW,241,4.0,4.0,81,0.00,,---,0.00,VWS V14.01,2013-02-15 01:31:00,
2013-02-14 19:36:00,35.6,30.4,30.01,WSW,243,3.0,4.0,81,0.00,,---,0.00,VWS V14.01,2013-02-15 01:36:00,
2013-02-14 19:42:00,35.8,30.5,30.01,WSW,242,2.0,4.0,81,0.00,,---,0.00,VWS V14.01,2013-02-15 01:42:00,
2013-02-14 19:47:00,35.8,30.5,30.01,WSW,239,0.0,5.0,81,0.00,,---,0.00,VWS V14.01,2013-02-15 01:47:00,
2013-02-14 19:52:00,35.8,30.9,30.01,SW,235,2.0,5.0,82,0.00,,---,0.00,VWS V14.01,2013-02-15 01:52:00,
2013-02-14 19:57:00,35.8,30.9,30.01,WSW,244,4.0,6.0,82,0.00,,---,0.00,VWS V14.01,2013-02-15 01:57:00,
2013-02-14 20:00:00,36.0,30.8,30.02,West,267,10.0,14.0,81,0.00,,---,0.00,VWS V14.01,2013-02-15 02:00:00,
2013-02-14 20:02:00,35.8,30.9,30.02,WSW,244,6.0,7.0,82,0.00,,---,0.00,VWS V14.01,2013-02-15 02:02:00,
2013-02-14 20:07:00,36.2,30.9,30.02,WSW,250,5.0,9.0,81,0.00,,---,0.00,VWS V14.01,2013-02-15 02:07:00,
2013-02-14 20:12:00,36.4,31.1,30.02,WSW,253,8.0,11.0,81,0.00,,---,0.00,VWS V14.01,2013-02-15 02:12:00,
2013-02-14 20:17:00,36.5,31.2,30.02,West,262,11.0,11.0,81,0.00,,---,0.00,VWS V14.01,2013-02-15 02:17:00,
2013-02-14 20:23:00,36.7,31.1,30.02,WSW,255,8.0,13.0,80,0.00,,---,0.00,VWS V14.01,2013-02-15 02:23:00,
2013-02-14 20:28:00,36.9,31.3,30.02,West,269,8.0,13.0,80,0.00,,---,0.00,VWS V14.01,2013-02-15 02:28:00,
2013-02-14 20:30:00,35.1,30.5,30.02,West,277,10.0,14.0,83,0.00,,---,0.00,VWS V14.01,2013-02-15 02:30:00,
2013-02-14 20:33:00,36.7,31.1,30.02,West,267,11.0,14.0,80,0.00,,---,0.00,VWS V14.01,2013-02-15 02:33:00,
2013-02-14 20:38:00,36.5,30.9,30.02,WSW,257,10.0,14.0,80,0.00,,---,0.00,VWS V14.01,2013-02-15 02:38:00,
2013-02-14 20:43:00,36.5,30.9,30.02,West,275,7.0,14.0,80,0.00,,---,0.00,VWS V14.01,2013-02-15 02:43:00,
2013-02-14 20:48:00,36.2,30.9,30.02,West,268,8.0,14.0,81,0.00,,---,0.00,VWS V14.01,2013-02-15 02:48:00,
2013-02-14 20:53:00,36.2,30.9,30.02,West,272,10.0,14.0,81,0.00,,---,0.00,VWS V14.01,2013-02-15 02:53:00,
2013-02-14 20:59:00,36.0,30.8,30.02,West,271,10.0,10.0,81,0.00,,---,0.00,VWS V14.01,2013-02-15 02:59:00,
2013-02-14 21:00:00,34.6,30.0,30.03,West,279,12.0,16.0,83,0.00,,---,0.00,VWS V14.01,2013-02-15 03:00:00,
2013-02-14 21:04:00,35.8,30.5,30.02,West,273,8.0,11.0,81,0.00,,---,0.00,VWS V14.01,2013-02-15 03:04:00,
2013-02-14 21:09:00,35.6,30.7,30.02,West,263,7.0,11.0,82,0.00,,---,0.00,VWS V14.01,2013-02-15 03:09:00,
2013-02-14 21:14:00,35.5,30.6,30.02,WSW,256,9.0,11.0,82,0.00,,---,0.00,VWS V14.01,2013-02-15 03:14:00,
2013-02-14 21:19:00,35.5,30.6,30.02,West,261,9.0,11.0,82,0.00,,---,0.00,VWS V14.01,2013-02-15 03:19:00,
2013-02-14 21:24:00,35.4,30.5,30.02,West,271,8.0,14.0,82,0.00,,---,0.00,VWS V14.01,2013-02-15 03:24:00,
2013-02-14 21:29:00,35.1,30.5,30.02,West,278,9.0,10.0,83,0.00,,---,0.00,VWS V14.01,2013-02-15 03:29:00,
2013-02-14 21:30:00,34.0,30.0,30.03,West,278,10.0,18.0,85,0.00,,---,0.00,VWS V14.01,2013-02-15 03:30:00,
2013-02-14 21:34:00,35.1,30.8,30.03,West,267,9.0,12.0,84,0.00,,---,0.00,VWS V14.01,2013-02-15 03:34:00,
2013-02-14 21:39:00,35.1,30.8,30.03,West,269,8.0,13.0,84,0.00,,---,0.00,VWS V14.01,2013-02-15 03:39:00,
2013-02-14 21:44:00,35.1,30.5,30.03,West,275,10.0,13.0,83,0.00,,---,0.00,VWS V14.01,2013-02-15 03:44:00,
2013-02-14 21:49:00,34.9,30.6,30.03,West,269,13.0,15.0,84,0.00,,---,0.00,VWS V14.01,2013-02-15 03:49:00,
2013-02-14 21:54:00,34.8,30.2,30.03,West,277,12.0,16.0,83,0.00,,---,0.00,VWS V14.01,2013-02-15 03:54:00,
2013-02-14 21:59:00,34.6,30.0,30.03,West,269,11.0,13.0,83,0.00,,---,0.00,VWS V14.01,2013-02-15 03:59:00,
2013-02-14 22:00:00,33.4,30.0,30.03,West,278,10.0,16.0,87,0.00,,---,0.00,VWS V14.01,2013-02-15 04:00:00,
2013-02-14 22:04:00,34.5,30.2,30.02,WNW,282,17.0,17.0,84,0.00,,---,0.00,VWS V14.01,2013-02-15 04:04:00,
2013-02-14 22:09:00,34.4,30.1,30.03,West,276,12.0,17.0,84,0.00,,---,0.00,VWS V14.01,2013-02-15 04:09:00,
2013-02-14 22:14:00,34.2,30.2,30.02,West,278,15.0,18.0,85,0.00,,---,0.00,VWS V14.01,2013-02-15 04:14:00,
2013-02-14 22:19:00,34.1,30.1,30.03,West,280,13.0,18.0,85,0.00,,---,0.00,VWS V14.01,2013-02-15 04:19:00,
2013-02-14 22:24:00,34.0,30.0,30.03,West,273,12.0,18.0,85,0.00,,---,0.00,VWS V14.01,2013-02-15 04:24:00,
2013-02-14 22:29:00,33.9,29.9,30.03,West,269,14.0,16.0,85,0.00,,---,0.00,VWS V14.01,2013-02-15 04:29:00,
2013-02-14 22:30:00,33.9,30.7,30.04,West,273,10.0,15.0,88,0.00,,---,0.00,VWS V14.01,2013-02-15 04:30:00,
2013-02-14 22:34:00,33.8,29.8,30.03,West,275,14.0,16.0,85,0.00,,---,0.00,VWS V14.01,2013-02-15 04:34:00,
2013-02-14 22:40:00,33.8,29.8,30.03,West,281,13.0,16.0,85,0.00,,---,0.00,VWS V14.01,2013-02-15 04:40:00,
2013-02-14 22:45:00,33.7,30.0,30.03,West,278,11.0,16.0,86,0.00,,---,0.00,VWS V14.01,2013-02-15 04:45:00,
2013-02-14 22:50:00,33.6,29.9,30.03,West,277,11.0,16.0,86,0.00,,---,0.00,VWS V14.01,2013-02-15 04:50:00,
2013-02-14 22:55:00,33.5,30.0,30.03,West,269,11.0,16.0,87,0.00,,---,0.00,VWS V14.01,2013-02-15 04:55:00,
2013-02-14 23:00:00,33.4,30.0,30.04,West,275,11.0,11.0,87,0.00,,---,0.00,VWS V14.01,2013-02-15 05:00:00,
2013-02-14 23:01:00,33.4,30.0,30.03,West,279,9.0,11.0,87,0.00,,---,0.00,VWS V14.01,2013-02-15 05:01:00,
2013-02-14 23:06:00,33.5,30.0,30.04,WNW,286,11.0,12.0,87,0.00,,---,0.00,VWS V14.01,2013-02-15 05:06:00,
2013-02-14 23:11:00,33.6,30.1,30.04,WNW,286,9.0,12.0,87,0.00,,---,0.00,VWS V14.01,2013-02-15 05:11:00,
2013-02-14 23:16:00,33.7,30.2,30.04,West,275,10.0,12.0,87,0.00,,---,0.00,VWS V14.01,2013-02-15 05:16:00,
2013-02-14 23:21:00,33.7,30.2,30.04,West,277,10.0,13.0,87,0.00,,---,0.00,VWS V14.01,2013-02-15 05:21:00,
2013-02-14 23:26:00,33.8,30.4,30.04,West,277,11.0,15.0,87,0.00,,---,0.00,VWS V14.01,2013-02-15 05:26:00,
2013-02-14 23:30:00,33.7,30.5,30.06,WNW,285,8.0,14.0,88,0.00,,---,0.00,VWS V14.01,2013-02-15 05:30:00,
2013-02-14 23:31:00,33.9,30.5,30.04,WNW,284,11.0,15.0,87,0.00,,---,0.00,VWS V14.01,2013-02-15 05:31:00,
2013-02-14 23:36:00,34.0,30.8,30.04,West,278,12.0,15.0,88,0.00,,---,0.00,VWS V14.01,2013-02-15 05:36:00,
2013-02-14 23:42:00,34.0,30.8,30.04,West,280,11.0,15.0,88,0.00,,---,0.00,VWS V14.01,2013-02-15 05:42:00,
2013-02-14 23:47:00,33.9,30.7,30.04,West,280,9.0,15.0,88,0.00,,---,0.00,VWS V14.01,2013-02-15 05:47:00,
2013-02-14 23:52:00,33.9,30.7,30.05,WNW,284,11.0,16.0,88,0.00,,---,0.00,VWS V14.01,2013-02-15 05:52:00,
2013-02-14 23:57:00,33.9,30.7,30.05,WNW,284,9.0,16.0,88,0.00,,---,0.00,VWS V14.01,2013-02-15 05:57:00,